createdAt,value
2022-08-03T00:01:36.645Z,99762.50
2022-08-03T00:04:05.398Z,99765.53
2022-08-03T00:06:36.739Z,99769.38
2022-08-03T00:09:05.802Z,99769.94
2022-08-03T00:11:33.613Z,99761.81
2022-08-03T00:14:01.379Z,99761.81
2022-08-03T00:16:28.506Z,99759.13
2022-08-03T00:18:55.528Z,99766.78
2022-08-03T00:21:22.581Z,99761.31
2022-08-03T00:23:52.079Z,99764.34
2022-08-03T00:26:22.610Z,99761.38
2022-08-03T00:28:50.746Z,99756.19
2022-08-03T00:31:27.780Z,99754.34
2022-08-03T00:34:05.024Z,99747.28
2022-08-03T00:36:33.093Z,99746.78
2022-08-03T00:39:00.115Z,99750.66
2022-08-03T00:41:27.179Z,99757.22
2022-08-03T00:43:54.136Z,99745.19
2022-08-03T00:46:22.366Z,99750.94
2022-08-03T00:48:53.095Z,99745.75
2022-08-03T00:51:21.723Z,99743.84
2022-08-03T00:53:50.177Z,99739.19
2022-08-03T00:56:17.973Z,99736.53
2022-08-03T00:58:46.510Z,99740.59
2022-08-03T01:01:14.660Z,99740.34
2022-08-03T01:03:41.867Z,99739.53
2022-08-03T01:06:21.762Z,99749.59
2022-08-03T01:09:09.250Z,99743.63
2022-08-03T01:11:59.787Z,99749.38
2022-08-03T01:15:00.130Z,99739.53
2022-08-03T01:17:43.922Z,99738.69
2022-08-03T01:20:16.980Z,99733.34
2022-08-03T01:23:29.177Z,99734.00
2022-08-03T01:26:25.330Z,99729.91
2022-08-03T01:29:21.553Z,99728.06
2022-08-03T01:32:53.494Z,99718.50
2022-08-03T01:35:13.742Z,99726.69
2022-08-03T01:37:59.816Z,99726.44
2022-08-03T01:40:29.190Z,99719.94
2022-08-03T01:42:59.583Z,99712.66
2022-08-03T01:45:27.723Z,99723.31
2022-08-03T01:47:56.566Z,99714.91
2022-08-03T01:50:29.102Z,99720.66
2022-08-03T01:52:58.168Z,99710.84
2022-08-03T01:55:28.265Z,99718.50
2022-08-03T01:58:04.570Z,99712.22
2022-08-03T02:00:34.994Z,99712.28
2022-08-03T02:03:05.630Z,99710.09
2022-08-03T02:05:33.903Z,99720.78
2022-08-03T02:08:03.466Z,99715.06
2022-08-03T02:10:35.333Z,99714.00
2022-08-03T02:13:06.672Z,99718.09
2022-08-03T02:15:35.746Z,99714.31
2022-08-03T02:18:05.948Z,99721.97
2022-08-03T02:20:37.585Z,99723.09
2022-08-03T02:23:06.573Z,99729.16
2022-08-03T02:25:39.157Z,99717.19
2022-08-03T02:28:17.171Z,99714.47
2022-08-03T02:30:51.794Z,99718.28
2022-08-03T02:33:32.924Z,99722.41
2022-08-03T02:36:02.675Z,99721.03
2022-08-03T02:38:34.865Z,99715.03
2022-08-03T02:41:07.733Z,99717.50
2022-08-03T02:43:41.273Z,99712.59
2022-08-03T02:46:32.586Z,99711.28
2022-08-03T02:49:40.930Z,99709.66
2022-08-03T02:51:52.437Z,99712.66
2022-08-03T02:54:21.823Z,99708.84
2022-08-03T02:56:49.865Z,99717.00
2022-08-03T02:59:19.964Z,99710.22
2022-08-03T03:01:47.657Z,99704.78
2022-08-03T03:04:16.352Z,99706.16
2022-08-03T03:06:44.815Z,99699.34
2022-08-03T03:09:14.768Z,99707.50
2022-08-03T03:11:44.102Z,99702.63
2022-08-03T03:14:13.371Z,99705.06
2022-08-03T03:16:41.860Z,99707.53
2022-08-03T03:19:15.566Z,99712.47
2022-08-03T03:21:44.738Z,99712.19
2022-08-03T03:24:12.189Z,99703.47
2022-08-03T03:26:42.484Z,99709.47
2022-08-03T03:29:09.778Z,99705.38
2022-08-03T03:31:37.302Z,99712.16
2022-08-03T03:34:05.087Z,99705.91
2022-08-03T03:36:33.845Z,99708.38
2022-08-03T03:39:15.617Z,99702.09
2022-08-03T03:41:43.909Z,99702.09
2022-08-03T03:44:10.889Z,99702.66
2022-08-03T03:46:39.663Z,99703.75
2022-08-03T03:49:07.420Z,99703.19
2022-08-03T03:51:34.883Z,99703.19
2022-08-03T03:54:06.849Z,99701.03
2022-08-03T03:56:33.880Z,99697.22
2022-08-03T03:59:00.868Z,99706.47
2022-08-03T04:01:28.591Z,99702.13
2022-08-03T04:03:55.532Z,99704.28
2022-08-03T04:06:41.011Z,99702.09
2022-08-03T04:09:29.058Z,99712.41
2022-08-03T04:12:00.973Z,99696.66
2022-08-03T04:14:35.043Z,99702.66
2022-08-03T04:17:09.238Z,99691.22
2022-08-03T04:19:46.571Z,99704.25
2022-08-03T04:22:22.525Z,99701.53
2022-08-03T04:25:01.290Z,99708.34
2022-08-03T04:27:36.346Z,99712.38
2022-08-03T04:30:06.656Z,99716.75
2022-08-03T04:32:35.868Z,99718.34
2022-08-03T04:35:03.687Z,99719.44
2022-08-03T04:37:41.692Z,99724.31
2022-08-03T04:40:13.459Z,99727.59
2022-08-03T04:42:42.165Z,99729.44
2022-08-03T04:45:13.143Z,99730.53
2022-08-03T04:47:41.344Z,99730.22
2022-08-03T04:50:12.908Z,99725.88
2022-08-03T04:52:41.336Z,99726.97
2022-08-03T04:55:08.938Z,99721.78
2022-08-03T04:57:36.071Z,99720.97
2022-08-03T05:00:05.559Z,99719.88
2022-08-03T05:02:32.834Z,99720.41
2022-08-03T05:05:00.271Z,99719.31
2022-08-03T05:07:35.705Z,99725.31
2022-08-03T05:10:15.856Z,99726.91
2022-08-03T05:12:48.044Z,99733.75
2022-08-03T05:15:15.873Z,99736.19
2022-08-03T05:17:43.035Z,99728.31
2022-08-03T05:20:10.916Z,99733.50
2022-08-03T05:22:37.906Z,99729.69
2022-08-03T05:25:05.476Z,99744.34
2022-08-03T05:27:32.484Z,99739.97
2022-08-03T05:30:30.867Z,99743.25
2022-08-03T05:32:46.596Z,99749.19
2022-08-03T05:35:57.881Z,99750.00
2022-08-03T05:38:02.632Z,99747.03
2022-08-03T05:40:30.774Z,99747.84
2022-08-03T05:42:58.142Z,99749.72
2022-08-03T05:45:28.361Z,99755.97
2022-08-03T05:47:55.851Z,99754.38
2022-08-03T05:50:23.004Z,99760.91
2022-08-03T05:52:50.077Z,99763.91
2022-08-03T05:55:17.688Z,99762.88
2022-08-03T05:57:47.221Z,99763.72
2022-08-03T06:00:17.065Z,99765.34
2022-08-03T06:02:44.310Z,99763.22
2022-08-03T06:05:11.316Z,99766.75
2022-08-03T06:07:38.364Z,99764.59
2022-08-03T06:10:37.408Z,99768.72
2022-08-03T06:12:53.607Z,99769.25
2022-08-03T06:15:20.894Z,99769.81
2022-08-03T06:17:50.266Z,99782.31
2022-08-03T06:20:19.739Z,99772.56
2022-08-03T06:22:50.542Z,99764.97
2022-08-03T06:25:19.337Z,99771.22
2022-08-03T06:27:48.567Z,99766.59
2022-08-03T06:30:21.033Z,99758.41
2022-08-03T06:32:51.675Z,99766.28
2022-08-03T06:35:19.732Z,99760.81
2022-08-03T06:37:49.330Z,99755.84
2022-08-03T06:40:24.296Z,99762.50
2022-08-03T06:42:51.699Z,99763.91
2022-08-03T06:45:18.709Z,99758.97
2022-08-03T06:47:45.788Z,99757.25
2022-08-03T06:50:16.932Z,99758.88
2022-08-03T06:52:45.323Z,99767.84
2022-08-03T06:55:12.416Z,99758.72
2022-08-03T06:57:39.381Z,99758.94
2022-08-03T07:00:12.307Z,99761.44
2022-08-03T07:02:40.660Z,99757.25
2022-08-03T07:05:09.640Z,99767.56
2022-08-03T07:07:37.533Z,99766.41
2022-08-03T07:10:06.084Z,99760.84
2022-08-03T07:12:34.506Z,99771.06
2022-08-03T07:15:05.613Z,99765.06
2022-08-03T07:17:36.996Z,99764.41
2022-08-03T07:20:08.929Z,99766.00
2022-08-03T07:22:36.260Z,99768.38
2022-08-03T07:25:03.693Z,99772.97
2022-08-03T07:27:30.949Z,99766.06
2022-08-03T07:30:00.230Z,99769.28
2022-08-03T07:32:31.204Z,99777.63
2022-08-03T07:35:00.838Z,99774.78
2022-08-03T07:37:29.306Z,99773.00
2022-08-03T07:39:56.454Z,99770.84
2022-08-03T07:42:23.941Z,99768.09
2022-08-03T07:44:50.947Z,99767.72
2022-08-03T07:47:25.978Z,99773.31
2022-08-03T07:50:03.919Z,99769.03
2022-08-03T07:52:49.308Z,99774.03
2022-08-03T07:55:18.286Z,99772.97
2022-08-03T07:57:45.335Z,99780.13
2022-08-03T08:00:19.530Z,99773.34
2022-08-03T08:02:46.560Z,99769.09
2022-08-03T08:05:13.668Z,99774.69
2022-08-03T08:07:40.952Z,99767.72
2022-08-03T08:10:10.359Z,99768.28
2022-08-03T08:12:39.396Z,99772.28
2022-08-03T08:15:08.074Z,99769.84
2022-08-03T08:17:49.869Z,99774.31
2022-08-03T08:20:22.468Z,99769.22
2022-08-03T08:23:03.046Z,99761.88
2022-08-03T08:25:32.370Z,99763.28
2022-08-03T08:28:30.387Z,99761.75
2022-08-03T08:30:51.701Z,99766.47
2022-08-03T08:33:22.531Z,99765.13
2022-08-03T08:35:53.060Z,99763.50
2022-08-03T08:38:20.319Z,99756.75
2022-08-03T08:40:49.693Z,99760.91
2022-08-03T08:43:16.659Z,99753.63
2022-08-03T08:45:44.898Z,99756.75
2022-08-03T08:48:13.841Z,99755.09
2022-08-03T08:50:41.397Z,99756.19
2022-08-03T08:53:18.161Z,99748.00
2022-08-03T08:55:58.318Z,99756.59
2022-08-03T08:58:34.872Z,99753.78
2022-08-03T09:01:02.035Z,99755.28
2022-08-03T09:03:30.251Z,99747.56
2022-08-03T09:06:00.848Z,99742.38
2022-08-03T09:08:33.294Z,99747.13
2022-08-03T09:11:00.618Z,99745.66
2022-08-03T09:13:29.181Z,99751.34
2022-08-03T09:16:18.288Z,99751.34
2022-08-03T09:18:54.956Z,99752.31
2022-08-03T09:21:32.201Z,99751.34
2022-08-03T09:24:04.218Z,99742.25
2022-08-03T09:26:35.938Z,99741.59
2022-08-03T09:29:13.270Z,99748.91
2022-08-03T09:31:46.557Z,99749.06
2022-08-03T09:34:16.396Z,99740.78
2022-08-03T09:36:50.946Z,99746.59
2022-08-03T09:39:41.015Z,99736.84
2022-08-03T09:42:15.498Z,99734.06
2022-08-03T09:44:51.286Z,99737.44
2022-08-03T09:47:37.781Z,99730.25
2022-08-03T09:50:12.876Z,99728.41
2022-08-03T09:52:49.971Z,99731.13
2022-08-03T09:56:05.192Z,99727.34
2022-08-03T09:58:10.165Z,99728.22
2022-08-03T10:01:01.826Z,99728.56
2022-08-03T10:03:32.504Z,99725.59
2022-08-03T10:06:22.250Z,99723.13
2022-08-03T10:09:10.614Z,99728.38
2022-08-03T10:11:42.060Z,99719.47
2022-08-03T10:14:19.640Z,99727.19
2022-08-03T10:16:48.271Z,99711.66
2022-08-03T10:19:16.663Z,99711.91
2022-08-03T10:21:56.976Z,99704.91
2022-08-03T10:24:28.209Z,99705.94
2022-08-03T10:27:11.362Z,99706.47
2022-08-03T10:29:45.249Z,99704.31
2022-08-03T10:32:38.580Z,99705.59
2022-08-03T10:35:18.959Z,99709.31
2022-08-03T10:38:26.292Z,99705.75
2022-08-03T10:40:58.780Z,99698.94
2022-08-03T10:43:44.576Z,99700.56
2022-08-03T10:46:11.585Z,99690.41
2022-08-03T10:48:39.198Z,99688.44
2022-08-03T10:51:07.574Z,99686.97
2022-08-03T10:53:44.191Z,99680.72
2022-08-03T10:56:53.305Z,99677.72
2022-08-03T11:00:04.827Z,99676.81
2022-08-03T11:03:18.448Z,99672.19
2022-08-03T11:05:49.158Z,99676.31
2022-08-03T11:08:28.048Z,99678.63
2022-08-03T11:11:23.875Z,99673.28
2022-08-03T11:14:11.349Z,99680.66
2022-08-03T11:16:41.667Z,99672.78
2022-08-03T11:19:15.951Z,99671.84
2022-08-03T11:21:51.836Z,99669.69
2022-08-03T11:24:37.287Z,99665.34
2022-08-03T11:27:25.768Z,99660.47
2022-08-03T11:30:09.477Z,99662.41
2022-08-03T11:32:40.092Z,99659.13
2022-08-03T11:35:24.993Z,99649.44
2022-08-03T11:38:03.495Z,99649.16
2022-08-03T11:40:48.949Z,99638.66
2022-08-03T11:43:21.984Z,99638.78
2022-08-03T11:46:29.459Z,99648.53
2022-08-03T11:49:10.485Z,99633.97
2022-08-03T11:51:40.016Z,99626.44
2022-08-03T11:54:07.840Z,99644.44
2022-08-03T11:56:47.446Z,99634.09
2022-08-03T11:59:20.154Z,99633.00
2022-08-03T12:01:51.197Z,99629.66
2022-08-03T12:04:18.488Z,99627.88
2022-08-03T12:07:01.759Z,99624.91
2022-08-03T12:09:28.826Z,99624.44
2022-08-03T12:11:59.481Z,99630.69
2022-08-03T12:14:49.163Z,99623.63
2022-08-03T12:17:17.398Z,99627.31
2022-08-03T12:19:45.224Z,99621.91
2022-08-03T12:22:12.396Z,99612.25
2022-08-03T12:24:46.797Z,99613.53
2022-08-03T12:27:25.177Z,99613.66
2022-08-03T12:29:58.470Z,99609.03
2022-08-03T12:32:28.710Z,99600.06
2022-08-03T12:35:00.820Z,99611.72
2022-08-03T12:37:29.198Z,99613.97
2022-08-03T12:40:05.149Z,99613.00
2022-08-03T12:42:38.302Z,99609.63
2022-08-03T12:45:31.860Z,99607.59
2022-08-03T12:48:01.692Z,99606.94
2022-08-03T12:50:35.170Z,99602.19
2022-08-03T12:53:05.423Z,99603.72
2022-08-03T12:55:57.104Z,99595.22
2022-08-03T12:58:35.854Z,99606.41
2022-08-03T13:01:09.554Z,99592.75
2022-08-03T13:03:50.332Z,99591.22
2022-08-03T13:06:28.860Z,99599.97
2022-08-03T13:09:05.724Z,99597.03
2022-08-03T13:11:57.279Z,99591.88
2022-08-03T13:14:20.713Z,99584.38
2022-08-03T13:16:50.998Z,99579.94
2022-08-03T13:19:18.011Z,99590.41
2022-08-03T13:22:01.760Z,99591.59
2022-08-03T13:24:33.051Z,99581.88
2022-08-03T13:27:00.740Z,99581.97
2022-08-03T13:29:47.745Z,99573.44
2022-08-03T13:32:14.864Z,99582.56
2022-08-03T13:34:41.869Z,99575.34
2022-08-03T13:37:19.722Z,99574.25
2022-08-03T13:39:57.155Z,99566.34
2022-08-03T13:42:32.267Z,99566.56
2022-08-03T13:45:00.490Z,99562.78
2022-08-03T13:47:28.192Z,99560.38
2022-08-03T13:50:01.646Z,99566.72
2022-08-03T13:52:32.650Z,99559.88
2022-08-03T13:55:00.223Z,99559.13
2022-08-03T13:58:11.636Z,99555.16
2022-08-03T14:00:27.874Z,99554.44
2022-08-03T14:03:12.656Z,99560.31
2022-08-03T14:05:42.590Z,99556.44
2022-08-03T14:08:10.299Z,99550.91
2022-08-03T14:10:40.705Z,99545.47
2022-08-03T14:13:10.276Z,99538.28
2022-08-03T14:15:38.484Z,99538.63
2022-08-03T14:18:15.439Z,99533.25
2022-08-03T14:20:50.158Z,99541.97
2022-08-03T14:23:21.811Z,99537.72
2022-08-03T14:25:51.505Z,99531.94
2022-08-03T14:28:22.930Z,99531.88
2022-08-03T14:30:55.713Z,99528.06
2022-08-03T14:33:23.743Z,99528.16
2022-08-03T14:35:51.973Z,99529.84
2022-08-03T14:38:20.068Z,99523.22
2022-08-03T14:40:48.290Z,99517.69
2022-08-03T14:43:18.013Z,99528.44
2022-08-03T14:45:45.162Z,99522.22
2022-08-03T14:50:32.768Z,99526.94
2022-08-03T14:50:59.392Z,99526.25
2022-08-03T14:53:26.410Z,99522.28
2022-08-03T14:55:53.580Z,99514.41
2022-08-03T14:58:25.944Z,99514.50
2022-08-03T15:00:54.760Z,99522.53
2022-08-03T15:03:24.807Z,99515.28
2022-08-03T15:05:55.695Z,99512.50
2022-08-03T15:08:25.065Z,99514.50
2022-08-03T15:10:53.660Z,99511.69
2022-08-03T15:13:21.240Z,99505.44
2022-08-03T15:15:50.705Z,99509.38
2022-08-03T15:18:17.965Z,99501.59
2022-08-03T15:20:46.714Z,99500.22
2022-08-03T15:23:15.849Z,99488.50
2022-08-03T15:26:28.282Z,99487.44
2022-08-03T15:28:52.202Z,99483.25
2022-08-03T15:31:25.736Z,99484.53
2022-08-03T15:33:53.153Z,99473.06
2022-08-03T15:36:20.600Z,99479.03
2022-08-03T15:38:47.834Z,99473.16
2022-08-03T15:41:15.383Z,99469.50
2022-08-03T15:43:42.521Z,99464.34
2022-08-03T15:46:30.382Z,99460.44
2022-08-03T15:48:57.875Z,99463.22
2022-08-03T15:51:24.837Z,99463.59
2022-08-03T15:53:51.868Z,99462.84
2022-08-03T15:56:19.001Z,99461.22
2022-08-03T15:59:04.203Z,99463.69
2022-08-03T16:01:33.736Z,99457.63
2022-08-03T16:04:00.761Z,99456.94
2022-08-03T16:06:29.850Z,99445.63
2022-08-03T16:09:04.448Z,99445.56
2022-08-03T16:11:31.938Z,99452.31
2022-08-03T16:14:13.291Z,99445.22
2022-08-03T16:16:45.943Z,99437.19
2022-08-03T16:19:13.767Z,99442.75
2022-08-03T16:21:48.011Z,99441.91
2022-08-03T16:24:19.744Z,99437.91
2022-08-03T16:26:52.167Z,99442.59
2022-08-03T16:29:22.293Z,99441.78
2022-08-03T16:31:51.176Z,99448.97
2022-08-03T16:34:24.254Z,99439.50
2022-08-03T16:36:52.438Z,99430.34
2022-08-03T16:39:19.490Z,99435.84
2022-08-03T16:41:54.547Z,99429.16
2022-08-03T16:44:30.684Z,99429.84
2022-08-03T16:46:59.376Z,99433.22
2022-08-03T16:49:55.291Z,99427.88
2022-08-03T16:52:13.820Z,99428.47
2022-08-03T16:54:44.372Z,99433.66
2022-08-03T16:58:00.013Z,99424.31
2022-08-03T17:00:08.734Z,99420.13
2022-08-03T17:02:37.190Z,99426.53
2022-08-03T17:05:05.133Z,99426.53
2022-08-03T17:07:32.187Z,99426.81
2022-08-03T17:10:00.813Z,99430.81
2022-08-03T17:12:28.198Z,99426.03
2022-08-03T17:14:57.190Z,99426.59
2022-08-03T17:17:56.256Z,99434.72
2022-08-03T17:20:21.633Z,99427.78
2022-08-03T17:23:15.855Z,99421.38
2022-08-03T17:26:02.477Z,99427.19
2022-08-03T17:28:52.177Z,99430.22
2022-08-03T17:31:31.269Z,99429.19
2022-08-03T17:34:02.125Z,99431.25
2022-08-03T17:39:30.889Z,99433.63
2022-08-03T17:42:39.132Z,99432.09
2022-08-03T17:44:57.502Z,99425.91
2022-08-03T17:47:29.296Z,99428.66
2022-08-03T17:50:24.174Z,99432.31
2022-08-03T17:53:15.487Z,99435.09
2022-08-03T17:56:38.566Z,99437.13
2022-08-03T17:59:51.705Z,99434.22
2022-08-03T18:03:12.566Z,99435.91
2022-08-03T18:06:11.576Z,99441.13
2022-08-03T18:08:43.095Z,99441.41
2022-08-03T18:11:16.673Z,99446.47
2022-08-03T18:14:16.342Z,99447.00
2022-08-03T18:17:01.408Z,99450.94
2022-08-03T18:20:03.367Z,99445.88
2022-08-03T18:22:21.941Z,99444.78
2022-08-03T18:24:52.936Z,99441.03
2022-08-03T18:27:21.458Z,99442.19
2022-08-03T18:29:50.552Z,99439.88
2022-08-03T18:32:18.654Z,99445.41
2022-08-03T18:34:53.342Z,99438.91
2022-08-03T18:37:25.990Z,99440.06
2022-08-03T18:39:57.891Z,99437.16
2022-08-03T18:42:26.591Z,99437.69
2022-08-03T18:44:55.903Z,99437.41
2022-08-03T18:47:55.693Z,99439.63
2022-08-03T18:50:49.781Z,99443.28
2022-08-03T18:54:03.191Z,99438.44
2022-08-03T18:56:52.575Z,99437.56
2022-08-03T18:59:46.263Z,99442.34
2022-08-03T19:02:35.991Z,99447.47
2022-08-03T19:05:10.840Z,99441.16
2022-08-03T19:07:43.049Z,99455.66
2022-08-03T19:10:36.696Z,99447.41
2022-08-03T19:13:18.334Z,99451.44
2022-08-03T19:16:02.709Z,99450.75
2022-08-03T19:18:31.397Z,99449.38
2022-08-03T19:20:59.388Z,99456.72
2022-08-03T19:23:26.415Z,99450.19
2022-08-03T19:26:02.913Z,99465.72
2022-08-03T19:28:31.313Z,99464.75
2022-08-03T19:31:02.817Z,99466.84
2022-08-03T19:33:56.014Z,99460.63
2022-08-03T19:36:29.802Z,99466.13
2022-08-03T19:38:57.873Z,99464.50
2022-08-03T19:41:41.531Z,99461.97
2022-08-03T19:44:20.272Z,99462.53
2022-08-03T19:46:54.506Z,99465.63
2022-08-03T19:49:57.763Z,99462.38
2022-08-03T19:52:20.704Z,99462.47
2022-08-03T19:54:53.899Z,99458.44
2022-08-03T19:57:25.341Z,99464.03
2022-08-03T19:59:54.516Z,99468.28
2022-08-03T20:02:27.176Z,99463.13
2022-08-03T20:04:56.990Z,99460.41
2022-08-03T20:07:26.108Z,99463.88
2022-08-03T20:09:56.729Z,99465.22
2022-08-03T20:12:27.634Z,99452.44
2022-08-03T20:15:00.789Z,99459.91
2022-08-03T20:20:24.799Z,99451.88
2022-08-03T20:22:57.751Z,99447.00
2022-08-03T20:25:38.247Z,99454.81
2022-08-03T20:28:17.035Z,99454.53
2022-08-03T20:30:46.435Z,99452.91
2022-08-03T20:33:18.571Z,99456.69
2022-08-03T20:35:49.194Z,99454.25
2022-08-03T20:38:27.230Z,99457.22
2022-08-03T20:40:54.743Z,99457.22
2022-08-03T20:43:21.813Z,99456.25
2022-08-03T20:45:58.392Z,99450.63
2022-08-03T20:48:28.560Z,99454.53
2022-08-03T20:50:56.461Z,99455.34
2022-08-03T20:53:57.124Z,99454.53
2022-08-03T20:56:11.152Z,99452.88
2022-08-03T20:58:42.536Z,99457.13
2022-08-03T21:01:17.991Z,99454.72
2022-08-03T21:03:55.838Z,99455.06
2022-08-03T21:06:28.685Z,99451.81
2022-08-03T21:09:05.281Z,99451.00
2022-08-03T21:11:49.215Z,99445.84
2022-08-03T21:13:09.724Z,99455.75
2022-08-03T21:14:29.907Z,99440.53
2022-08-03T21:16:58.713Z,99438.91
2022-08-03T21:19:30.124Z,99437.31
2022-08-03T21:21:59.268Z,99442.81
2022-08-03T21:24:28.997Z,99439.59
2022-08-03T21:26:59.955Z,99435.69
2022-08-03T21:29:28.853Z,99438.00
2022-08-03T21:31:57.564Z,99437.50
2022-08-03T21:34:26.330Z,99434.94
2022-08-03T21:36:53.370Z,99433.66
2022-08-03T21:39:20.463Z,99439.97
2022-08-03T21:41:47.618Z,99434.16
2022-08-03T21:44:17.928Z,99428.19
2022-08-03T21:46:53.960Z,99430.44
2022-08-03T21:49:52.064Z,99429.97
2022-08-03T21:52:09.914Z,99430.16
2022-08-03T21:54:43.134Z,99434.25
2022-08-03T21:57:27.563Z,99433.78
2022-08-03T22:00:01.268Z,99436.53
2022-08-03T22:02:32.138Z,99436.41
2022-08-03T22:04:59.562Z,99427.66
2022-08-03T22:07:29.007Z,99430.75
2022-08-03T22:09:58.249Z,99431.53
2022-08-03T22:12:28.232Z,99431.41
2022-08-03T22:15:01.391Z,99427.22
2022-08-03T22:17:54.796Z,99433.38
2022-08-03T22:20:20.950Z,99437.63
2022-08-03T22:22:56.018Z,99435.22
2022-08-03T22:25:30.566Z,99442.31
2022-08-03T22:28:05.983Z,99436.34
2022-08-03T22:30:34.160Z,99437.47
2022-08-03T22:33:05.152Z,99435.50
2022-08-03T22:35:48.206Z,99429.88
2022-08-03T22:38:17.908Z,99437.34
2022-08-03T22:40:48.204Z,99437.50
2022-08-03T22:43:15.384Z,99436.19
2022-08-03T22:46:09.742Z,99435.22
2022-08-03T22:48:40.798Z,99444.16
2022-08-03T22:51:09.484Z,99457.22
2022-08-03T22:53:36.804Z,99467.63
2022-08-03T22:56:04.540Z,99468.53
2022-08-03T22:58:31.598Z,99464.41
2022-08-03T23:01:09.181Z,99466.81
2022-08-03T23:04:01.248Z,99458.72
2022-08-03T23:06:33.823Z,99459.53
2022-08-03T23:09:11.823Z,99448.44
2022-08-03T23:11:45.991Z,99452.34
2022-08-03T23:14:16.341Z,99451.53
2022-08-03T23:16:44.479Z,99460.88
2022-08-03T23:19:17.297Z,99444.63
2022-08-03T23:22:02.317Z,99458.81
2022-08-03T23:24:33.902Z,99453.53
2022-08-03T23:27:08.110Z,99457.56
2022-08-03T23:29:37.954Z,99459.66
2022-08-03T23:32:06.796Z,99449.69
2022-08-03T23:34:55.473Z,99449.56
2022-08-03T23:37:24.569Z,99462.31
2022-08-03T23:39:54.415Z,99463.13
2022-08-03T23:42:23.096Z,99450.88
2022-08-03T23:45:05.671Z,99446.38
2022-08-03T23:47:46.725Z,99452.06
2022-08-03T23:50:15.155Z,99450.59
2022-08-03T23:53:02.925Z,99447.53
2022-08-03T23:55:54.086Z,99451.41
2022-08-03T23:58:48.592Z,99441.56
